Time;durP1;ratioP1;P1;durP2;ratioP2;P2;SDS_P1;SDS_P2;PMS_P1;PMS_P2;Temp;Humidity;BMP_temperature;BMP_pressure;BME280_temperature;BME280_humidity;BME280_pressure;Samples;Min_cycle;Max_cycle;Signal;HPM_P1;HPM_P2
2022/12/08 00:01:33;;;;;;;13.13;8.27;;;;;;;6.53;56.40;97043.88;5044837;28;20202;-68
2022/12/08 00:04:00;;;;;;;11.63;8.57;;;;;;;6.56;56.79;97041.84;5049588;28;20762;-69
2022/12/08 00:09:34;;;;;;;12.80;8.43;;;;;;;6.42;56.66;97045.63;5039790;28;20469;-69
2022/12/08 00:12:07;;;;;;;13.57;9.23;;;;;;;6.52;56.49;97044.84;5039641;28;20429;-69
2022/12/08 00:14:35;;;;;;;13.37;9.80;;;;;;;6.42;56.40;97037.81;5040862;28;20425;-69
2022/12/08 00:17:02;;;;;;;12.70;8.60;;;;;;;6.37;57.02;97041.75;5035980;28;20494;-68
2022/12/08 00:19:28;;;;;;;11.23;8.60;;;;;;;6.30;56.57;97037.06;5026474;28;20822;-69
2022/12/08 00:21:54;;;;;;;12.43;9.03;;;;;;;6.20;57.20;97038.81;5041504;28;20457;-69
2022/12/08 00:24:21;;;;;;;17.87;9.37;;;;;;;5.98;57.56;97037.97;5041914;28;20487;-69
2022/12/08 00:26:47;;;;;;;13.27;8.97;;;;;;;6.13;57.51;97028.06;5026255;28;20872;-69
2022/12/08 00:29:13;;;;;;;12.03;8.67;;;;;;;6.24;56.75;97023.75;5047111;28;20425;-69
2022/12/08 00:31:39;;;;;;;12.73;8.83;;;;;;;6.22;57.08;97023.88;5043928;28;20449;-69
2022/12/08 00:34:04;;;;;;;13.27;8.77;;;;;;;6.22;56.54;97023.88;5014175;28;21028;-68
2022/12/08 00:36:30;;;;;;;10.30;8.20;;;;;;;6.16;56.68;97024.41;5043227;28;20215;-69
2022/12/08 00:38:56;;;;;;;12.27;8.17;;;;;;;6.03;56.45;97021.19;5047869;28;20285;-67
2022/12/08 00:42:10;;;;;;;11.10;8.40;;;;;;;5.99;56.32;97017.97;5033275;28;20200;-68
2022/12/08 00:44:10;;;;;;;11.40;8.03;;;;;;;6.03;56.04;97010.78;5037054;28;20937;-68
2022/12/08 00:46:35;;;;;;;10.50;9.00;;;;;;;6.07;56.10;97019.97;5043170;28;20418;-71
2022/12/08 00:49:01;;;;;;;13.10;8.90;;;;;;;6.08;55.79;97011.19;5042521;28;20428;-70
2022/12/08 00:51:27;;;;;;;12.27;9.23;;;;;;;6.12;55.78;97012.59;5039040;28;20195;-70
2022/12/08 00:53:52;;;;;;;12.93;9.87;;;;;;;6.14;55.54;97010.69;5044996;28;20485;-68
2022/12/08 00:56:18;;;;;;;12.70;9.10;;;;;;;6.16;55.28;97003.59;5039557;28;20215;-70
2022/12/08 00:58:43;;;;;;;15.20;9.90;;;;;;;6.16;55.30;97014.00;5048923;28;20603;-70
2022/12/08 01:01:13;;;;;;;14.97;9.77;;;;;;;6.18;55.04;97008.66;5036974;28;20292;-69
2022/12/08 01:03:38;;;;;;;14.03;9.40;;;;;;;6.15;54.82;97007.97;5049668;28;20543;-67
2022/12/08 01:06:05;;;;;;;11.73;8.50;;;;;;;6.17;55.20;97004.41;5041862;28;20410;-70
2022/12/08 01:08:31;;;;;;;14.60;9.07;;;;;;;6.08;55.20;97006.00;5009428;28;20944;-67
2022/12/08 01:11:09;;;;;;;11.27;8.20;;;;;;;5.85;55.38;96998.31;5035395;28;20484;-69
2022/12/08 01:13:35;;;;;;;11.23;8.33;;;;;;;5.81;54.77;97007.31;5027951;28;20261;-69
2022/12/08 01:16:00;;;;;;;11.80;7.67;;;;;;;5.66;55.48;97009.41;5046498;28;21096;-70
2022/12/08 01:18:26;;;;;;;13.67;8.47;;;;;;;5.59;55.85;97016.88;5036550;28;20183;-68
2022/12/08 01:20:52;;;;;;;9.77;7.97;;;;;;;5.46;56.40;97014.47;5047842;28;20217;-68
2022/12/08 01:23:17;;;;;;;9.50;8.07;;;;;;;5.41;56.70;97018.41;5042036;28;20422;-69
2022/12/08 01:25:43;;;;;;;13.30;9.10;;;;;;;5.33;56.77;97017.22;5043174;28;20183;-69
2022/12/08 01:28:08;;;;;;;14.27;8.77;;;;;;;5.34;56.68;97018.88;5042679;28;20180;-70
2022/12/08 01:30:36;;;;;;;15.63;9.17;;;;;;;5.36;56.69;97022.19;5034925;28;20199;-68
2022/12/08 01:33:02;;;;;;;15.73;9.83;;;;;;;5.45;56.25;97019.78;5046131;28;20198;-68
2022/12/08 01:35:27;;;;;;;14.77;9.80;;;;;;;5.47;56.63;97017.88;5038007;28;20939;-70
2022/12/08 01:37:52;;;;;;;11.07;8.60;;;;;;;5.37;56.68;97010.84;5043470;28;20221;-68
2022/12/08 01:40:18;;;;;;;14.67;9.60;;;;;;;5.45;56.32;97020.63;5042448;28;20302;-70
2022/12/08 01:42:43;;;;;;;13.23;9.80;;;;;;;5.21;56.60;97024.25;5038076;28;20240;-69
2022/12/08 01:45:14;;;;;;;13.37;8.93;;;;;;;5.19;55.71;97020.13;5043261;28;20266;-69
2022/12/08 01:47:41;;;;;;;12.53;9.10;;;;;;;5.11;56.28;97018.13;5038893;28;20689;-71
2022/12/08 01:50:09;;;;;;;16.50;9.30;;;;;;;4.82;56.82;97018.69;5031185;28;20438;-68
2022/12/08 01:52:42;;;;;;;10.90;7.90;;;;;;;4.90;56.93;97015.47;5039250;28;20479;-69
2022/12/08 01:55:36;;;;;;;11.23;8.00;;;;;;;4.96;56.37;97017.59;5043697;28;20505;-68
2022/12/08 01:58:12;;;;;;;12.03;8.40;;;;;;;5.05;56.68;97014.25;5000571;28;20422;-68
2022/12/08 02:00:37;;;;;;;16.00;9.23;;;;;;;4.99;56.13;97014.75;5042344;28;20462;-69
2022/12/08 02:03:06;;;;;;;13.73;8.93;;;;;;;5.06;56.86;97004.69;5045194;28;20433;-70
2022/12/08 02:05:36;;;;;;;14.40;9.20;;;;;;;5.09;56.94;97004.47;5008249;28;20201;-68
2022/12/08 02:08:06;;;;;;;13.90;9.80;;;;;;;5.16;56.54;96994.41;5029406;28;20438;-69
2022/12/08 02:10:37;;;;;;;15.40;8.17;;;;;;;5.06;56.09;96995.13;5012424;28;20926;-69
2022/12/08 02:13:04;;;;;;;13.30;8.80;;;;;;;5.05;56.49;96996.06;5039371;28;20469;-69
2022/12/08 02:15:51;;;;;;;12.00;8.63;;;;;;;5.08;56.63;96993.22;5047582;28;20471;-71
2022/12/08 02:18:32;;;;;;;11.50;7.80;;;;;;;5.19;56.34;96991.53;5029781;28;20525;-69
2022/12/08 02:21:19;;;;;;;13.50;7.60;;;;;;;5.19;56.01;96984.56;5047330;28;20460;-68
2022/12/08 02:23:53;;;;;;;12.57;8.03;;;;;;;5.20;55.69;96985.38;5020972;28;20425;-69
2022/12/08 02:27:00;;;;;;;10.70;7.47;;;;;;;5.27;55.52;96981.38;5038336;28;20469;-68
2022/12/08 02:29:47;;;;;;;13.87;7.77;;;;;;;5.10;55.16;96980.13;5042075;28;20434;-69
2022/12/08 02:32:57;;;;;;;11.27;8.30;;;;;;;4.72;56.16;96976.22;5046929;28;20441;-70
2022/12/08 02:35:43;;;;;;;14.30;8.77;;;;;;;4.76;56.86;96967.22;5017756;28;20432;-70
2022/12/08 02:38:30;;;;;;;12.83;8.20;;;;;;;4.83;56.39;96964.97;5029465;28;20917;-69
2022/12/08 02:41:09;;;;;;;11.13;7.60;;;;;;;4.87;55.99;96962.00;5036937;28;20500;-69
2022/12/08 02:43:40;;;;;;;9.67;7.27;;;;;;;4.88;56.44;96953.25;5033891;28;20464;-69
2022/12/08 02:46:10;;;;;;;15.47;9.10;;;;;;;4.95;56.36;96951.00;5049568;28;20449;-70
2022/12/08 02:48:35;;;;;;;12.60;8.53;;;;;;;4.86;56.29;96949.16;5015879;28;20429;-70
2022/12/08 02:51:01;;;;;;;11.67;8.20;;;;;;;4.87;56.46;96941.22;5046400;28;20433;-69
2022/12/08 02:53:31;;;;;;;13.87;8.50;;;;;;;4.85;56.33;96945.72;5046832;28;20651;-69
2022/12/08 02:56:20;;;;;;;12.23;7.93;;;;;;;4.88;56.52;96942.88;5043615;28;20183;-70
2022/12/08 02:59:13;;;;;;;11.73;8.63;;;;;;;4.94;55.99;96946.75;5040728;28;20862;-69
2022/12/08 03:01:56;;;;;;;11.27;7.63;;;;;;;4.85;56.05;96950.09;5032021;28;20475;-70
2022/12/08 03:04:21;;;;;;;12.73;8.13;;;;;;;4.76;56.04;96947.28;5048838;28;20652;-70
2022/12/08 03:06:52;;;;;;;10.93;7.60;;;;;;;4.49;56.23;96946.88;5040991;28;20534;-69
2022/12/08 03:09:38;;;;;;;12.87;8.67;;;;;;;4.59;55.91;96945.19;5033341;28;20199;-70
2022/12/08 03:12:03;;;;;;;11.80;8.17;;;;;;;4.57;56.46;96941.88;5027870;28;20425;-69
2022/12/08 03:14:29;;;;;;;13.30;8.63;;;;;;;4.62;55.70;96944.97;5044427;28;20775;-69
2022/12/08 03:16:56;;;;;;;12.77;9.00;;;;;;;4.48;56.03;96940.84;5042685;28;20210;-68
2022/12/08 03:19:25;;;;;;;10.90;8.00;;;;;;;4.57;56.26;96941.88;5042570;28;20462;-69
2022/12/08 03:21:59;;;;;;;12.70;8.50;;;;;;;4.53;55.79;96945.69;5049443;28;20445;-69
2022/12/08 03:24:24;;;;;;;14.03;8.63;;;;;;;4.49;56.49;96949.47;5044086;28;20893;-69
2022/12/08 03:27:03;;;;;;;12.30;7.93;;;;;;;4.54;55.82;96948.16;5045617;28;20425;-69
2022/12/08 03:29:29;;;;;;;11.27;8.07;;;;;;;4.46;55.85;96946.16;5044784;28;20600;-69
2022/12/08 03:32:06;;;;;;;13.27;8.23;;;;;;;4.48;55.91;96938.25;5047002;28;20457;-69
2022/12/08 03:34:31;;;;;;;11.80;8.50;;;;;;;4.35;56.07;96932.38;5032573;28;20432;-68
2022/12/08 03:36:59;;;;;;;11.00;7.70;;;;;;;4.37;57.03;96931.31;5037769;28;20430;-70
2022/12/08 03:39:24;;;;;;;9.30;8.00;;;;;;;4.39;55.98;96921.66;5044080;28;20692;-70
2022/12/08 03:41:50;;;;;;;11.93;8.83;;;;;;;4.35;56.37;96925.41;5026136;28;20541;-68
2022/12/08 03:44:15;;;;;;;9.80;7.83;;;;;;;4.39;56.69;96919.06;5049548;28;20286;-68
2022/12/08 03:46:41;;;;;;;12.43;8.30;;;;;;;4.45;55.89;96921.16;5039968;28;20183;-69
2022/12/08 03:49:06;;;;;;;13.97;8.87;;;;;;;4.41;56.10;96905.94;5048266;28;20208;-69
2022/12/08 03:51:32;;;;;;;10.43;7.40;;;;;;;4.40;56.26;96907.72;5048222;28;20256;-69
2022/12/08 03:53:57;;;;;;;12.13;7.73;;;;;;;4.25;55.92;96908.91;5027035;28;20184;-69
2022/12/08 03:56:31;;;;;;;17.70;8.17;;;;;;;4.13;56.69;96898.56;5040842;28;20313;-69
2022/12/08 03:58:57;;;;;;;13.00;8.30;;;;;;;4.30;56.22;96910.22;5053265;28;20619;-68
2022/12/08 04:01:23;;;;;;;9.80;7.17;;;;;;;4.41;56.44;96901.56;5049013;28;20457;-69
2022/12/08 04:03:48;;;;;;;12.50;9.03;;;;;;;4.53;56.09;96906.75;5047760;28;20191;-69
2022/12/08 04:06:14;;;;;;;13.27;8.43;;;;;;;4.55;55.64;96916.06;5047578;28;20184;-68
2022/12/08 04:08:40;;;;;;;16.90;8.50;;;;;;;4.33;55.54;96898.75;5038165;28;20213;-70
2022/12/08 04:11:06;;;;;;;11.17;8.23;;;;;;;4.24;55.89;96902.09;5048748;28;21004;-69
2022/12/08 04:13:33;;;;;;;10.90;8.20;;;;;;;4.30;55.89;96896.41;5044177;28;20198;-68
2022/12/08 04:15:58;;;;;;;11.30;8.60;;;;;;;4.31;55.81;96900.66;5048871;28;20908;-71
2022/12/08 04:18:24;;;;;;;12.23;8.40;;;;;;;4.11;55.82;96900.44;5037210;28;20429;-69
2022/12/08 04:20:49;;;;;;;13.47;8.57;;;;;;;4.08;56.43;96899.88;5045318;28;20621;-69
2022/12/08 04:23:15;;;;;;;11.90;8.00;;;;;;;4.19;56.18;96899.00;5037174;28;20184;-69
2022/12/08 04:25:40;;;;;;;11.60;7.97;;;;;;;4.21;56.29;96892.78;5028008;28;20185;-69
2022/12/08 04:28:06;;;;;;;11.50;8.33;;;;;;;4.29;56.08;96892.16;5041796;28;20234;-69
2022/12/08 04:30:32;;;;;;;10.73;7.97;;;;;;;4.38;55.21;96896.63;5039318;28;20203;-70
2022/12/08 04:32:58;;;;;;;9.60;7.60;;;;;;;4.30;55.27;96889.44;5031672;28;20215;-69
2022/12/08 04:35:23;;;;;;;12.40;8.33;;;;;;;4.34;55.89;96889.22;5006117;28;20422;-69
2022/12/08 04:37:49;;;;;;;11.30;7.40;;;;;;;4.32;55.09;96888.50;5019708;28;20190;-69
2022/12/08 04:40:14;;;;;;;12.77;7.57;;;;;;;4.22;54.58;96884.03;5030872;28;20273;-68
2022/12/08 04:42:41;;;;;;;13.03;8.77;;;;;;;3.81;56.15;96877.72;5036863;28;20565;-70
2022/12/08 04:45:06;;;;;;;12.43;8.20;;;;;;;3.97;56.41;96887.72;5033488;28;20207;-69
2022/12/08 04:47:32;;;;;;;12.10;7.73;;;;;;;4.09;55.61;96880.75;5027285;28;20480;-69
2022/12/08 04:49:58;;;;;;;11.23;7.93;;;;;;;4.14;55.79;96884.66;5032849;28;20958;-69
2022/12/08 04:52:23;;;;;;;12.80;7.47;;;;;;;4.15;55.38;96880.28;5031266;28;20175;-67
2022/12/08 04:54:48;;;;;;;12.07;8.27;;;;;;;3.99;55.91;96881.47;5031315;28;20187;-68
2022/12/08 04:57:14;;;;;;;11.07;8.20;;;;;;;3.94;56.41;96890.53;5038382;28;20183;-68
2022/12/08 04:59:40;;;;;;;12.23;8.20;;;;;;;3.94;55.55;96891.38;5030629;28;20306;-70
2022/12/08 05:02:05;;;;;;;11.63;7.93;;;;;;;3.92;55.60;96887.25;5030747;28;20282;-69
2022/12/08 05:04:31;;;;;;;11.50;8.20;;;;;;;3.77;55.74;96877.13;5031991;28;20178;-68
2022/12/08 05:06:56;;;;;;;10.67;7.73;;;;;;;3.82;56.33;96877.59;5035499;28;20297;-68
2022/12/08 05:09:21;;;;;;;12.47;7.93;;;;;;;3.86;55.58;96874.75;5040137;28;20862;-69
2022/12/08 05:11:47;;;;;;;12.67;8.03;;;;;;;3.89;55.66;96874.53;5031633;28;20207;-69
2022/12/08 05:14:14;;;;;;;11.50;7.07;;;;;;;3.97;55.67;96877.34;5031377;28;20172;-69
2022/12/08 05:16:40;;;;;;;12.80;8.30;;;;;;;3.90;55.63;96869.22;5038086;28;20179;-69
2022/12/08 05:19:05;;;;;;;9.17;7.37;;;;;;;3.83;56.26;96861.09;5012916;28;20458;-69
2022/12/08 05:21:31;;;;;;;13.30;7.43;;;;;;;3.84;56.10;96864.53;5030233;28;20805;-70
2022/12/08 05:23:56;;;;;;;12.30;8.47;;;;;;;3.89;55.96;96857.19;5028023;28;20241;-70
2022/12/08 05:26:22;;;;;;;10.37;7.30;;;;;;;3.95;55.53;96863.66;5029361;28;20663;-70
2022/12/08 05:28:47;;;;;;;10.57;7.37;;;;;;;4.00;55.85;96853.78;5031361;28;20281;-69
2022/12/08 05:31:14;;;;;;;17.07;9.03;;;;;;;4.03;55.32;96866.50;5031335;28;20203;-70
2022/12/08 05:33:40;;;;;;;37.23;20.87;;;;;;;4.03;55.64;96860.47;5036032;28;20231;-69
2022/12/08 05:36:06;;;;;;;62.20;31.83;;;;;;;3.97;55.09;96862.59;5026667;28;20951;-70
2022/12/08 05:38:31;;;;;;;19.90;11.80;;;;;;;3.78;55.30;96870.97;5026054;28;20179;-70
2022/12/08 05:40:57;;;;;;;20.03;14.83;;;;;;;3.76;55.62;96865.09;5033856;28;20989;-68
2022/12/08 05:43:22;;;;;;;23.67;15.87;;;;;;;3.77;55.38;96866.75;5038686;28;20179;-69
2022/12/08 05:45:48;;;;;;;23.67;15.63;;;;;;;3.78;55.23;96867.56;5036657;28;20256;-69
2022/12/08 05:48:14;;;;;;;24.20;11.00;;;;;;;3.79;55.23;96864.84;5032918;28;20184;-70
2022/12/08 05:50:45;;;;;;;19.80;11.40;;;;;;;3.78;54.74;96862.38;5031149;28;20559;-69
2022/12/08 05:53:10;;;;;;;20.20;12.87;;;;;;;3.77;55.29;96861.56;5029709;28;20275;-70
2022/12/08 05:55:35;;;;;;;22.57;10.90;;;;;;;3.75;54.88;96863.44;5029598;28;21144;-67
2022/12/08 05:58:01;;;;;;;16.13;10.60;;;;;;;3.72;55.21;96855.91;5030836;28;20277;-67
2022/12/08 06:00:26;;;;;;;13.93;9.90;;;;;;;3.65;55.77;96850.38;5038289;28;20212;-67
2022/12/08 06:02:52;;;;;;;13.97;8.63;;;;;;;3.67;55.26;96852.81;5029576;28;20202;-70
2022/12/08 06:05:17;;;;;;;12.03;7.80;;;;;;;3.69;54.89;96858.72;5033095;28;20694;-70
2022/12/08 06:07:43;;;;;;;15.43;8.00;;;;;;;3.68;55.21;96862.25;5030944;28;20291;-68
2022/12/08 06:10:08;;;;;;;12.03;7.47;;;;;;;3.69;55.10;96854.38;5018487;28;20274;-69
2022/12/08 06:12:34;;;;;;;12.23;7.30;;;;;;;3.65;55.55;96852.97;5032991;28;20190;-70
2022/12/08 06:14:59;;;;;;;13.70;7.60;;;;;;;3.67;55.55;96850.22;5039799;28;20194;-71
2022/12/08 06:17:25;;;;;;;10.40;7.83;;;;;;;3.63;55.52;96854.03;5030404;28;20191;-70
2022/12/08 06:19:50;;;;;;;11.93;8.10;;;;;;;3.63;55.48;96851.44;5030213;28;20723;-68
2022/12/08 06:22:16;;;;;;;16.40;9.10;;;;;;;3.57;55.32;96850.13;5037556;28;20229;-69
2022/12/08 06:24:41;;;;;;;12.10;8.00;;;;;;;3.59;55.36;96850.00;5029220;28;20186;-69
2022/12/08 06:27:06;;;;;;;10.40;7.20;;;;;;;3.63;55.33;96848.84;5036240;28;20278;-68
2022/12/08 06:29:32;;;;;;;9.43;7.20;;;;;;;3.63;54.63;96848.84;5035905;28;20654;-68
2022/12/08 06:31:57;;;;;;;11.73;7.33;;;;;;;3.57;55.70;96859.66;5027045;28;20346;-69
2022/12/08 06:34:23;;;;;;;11.53;6.80;;;;;;;3.46;56.56;96858.72;5028609;28;20215;-69
2022/12/08 06:36:48;;;;;;;10.63;7.20;;;;;;;3.46;57.42;96863.91;5029544;28;20211;-68
2022/12/08 06:39:14;;;;;;;9.40;7.00;;;;;;;3.56;57.14;96863.19;5029915;28;20294;-69
2022/12/08 06:42:42;;;;;;;10.20;7.13;;;;;;;3.63;57.01;96864.41;5027050;28;20285;-69
2022/12/08 06:44:24;;;;;;;10.13;6.57;;;;;;;3.71;57.22;96867.22;5035025;28;20234;-69
2022/12/08 06:46:50;;;;;;;10.10;7.17;;;;;;;3.74;56.89;96866.97;5011301;28;20838;-68
2022/12/08 06:49:15;;;;;;;11.23;7.03;;;;;;;3.81;56.08;96860.38;5039732;28;20180;-69
2022/12/08 06:51:41;;;;;;;11.60;7.60;;;;;;;3.68;55.61;96862.25;5029286;28;20208;-69
2022/12/08 06:54:06;;;;;;;12.97;9.07;;;;;;;3.65;55.76;96863.31;5030565;28;20667;-72
2022/12/08 06:56:32;;;;;;;12.73;9.17;;;;;;;3.62;55.70;96862.75;5041059;28;20328;-69
2022/12/08 06:58:57;;;;;;;13.77;9.67;;;;;;;3.70;55.34;96865.56;5032286;28;20190;-69
2022/12/08 07:01:22;;;;;;;13.40;8.30;;;;;;;3.57;55.55;96864.84;5030054;28;20238;-69
2022/12/08 07:03:48;;;;;;;10.90;8.00;;;;;;;3.62;54.77;96860.97;5030129;28;20266;-69
2022/12/08 07:06:15;;;;;;;16.30;8.47;;;;;;;3.57;55.43;96864.84;5030054;28;20647;-70
2022/12/08 07:08:41;;;;;;;12.90;7.63;;;;;;;3.60;55.28;96867.22;5035868;28;20206;-71
2022/12/08 07:11:08;;;;;;;10.80;7.70;;;;;;;3.65;55.25;96865.09;5029754;28;20542;-70
2022/12/08 07:13:33;;;;;;;11.83;7.50;;;;;;;3.49;55.38;96868.00;5028293;28;20433;-71
2022/12/08 07:15:59;;;;;;;13.33;7.80;;;;;;;3.48;55.59;96872.38;5018863;28;20435;-72
2022/12/08 07:18:24;;;;;;;12.33;8.20;;;;;;;3.49;56.05;96863.69;5024643;28;20267;-70
2022/12/08 07:20:50;;;;;;;14.60;7.87;;;;;;;3.42;56.30;96867.66;5020673;28;20576;-70
2022/12/08 07:23:15;;;;;;;11.10;7.47;;;;;;;3.42;56.23;96859.88;5021906;28;20298;-70
2022/12/08 07:25:41;;;;;;;10.90;7.77;;;;;;;3.43;56.76;96858.13;5032535;28;20255;-70
2022/12/08 07:28:08;;;;;;;14.23;9.47;;;;;;;3.50;56.04;96862.75;5025015;28;20191;-70
2022/12/08 07:30:33;;;;;;;16.40;10.10;;;;;;;3.53;55.68;96859.06;5025840;28;20211;-70
2022/12/08 07:32:58;;;;;;;14.00;9.03;;;;;;;3.45;55.92;96861.44;5019680;28;20814;-69
2022/12/08 07:35:24;;;;;;;16.07;9.40;;;;;;;3.23;56.72;96863.03;5019301;28;21934;-70
2022/12/08 07:37:49;;;;;;;17.50;10.23;;;;;;;3.23;56.83;96876.81;5029482;28;20190;-70
2022/12/08 07:40:15;;;;;;;17.73;9.67;;;;;;;3.14;56.77;96880.09;5024359;28;20201;-71
2022/12/08 07:42:40;;;;;;;16.63;8.97;;;;;;;3.16;56.89;96867.84;5034769;28;20208;-69
2022/12/08 07:45:06;;;;;;;19.00;10.10;;;;;;;3.30;56.82;96876.34;5032689;28;20275;-69
2022/12/08 07:47:32;;;;;;;21.43;10.83;;;;;;;3.40;56.15;96881.66;5032125;28;20230;-69
2022/12/08 07:49:57;;;;;;;22.90;10.50;;;;;;;3.33;56.31;96868.34;5033418;28;20521;-69
2022/12/08 07:52:22;;;;;;;21.17;10.73;;;;;;;3.55;56.84;96867.56;5038536;28;20208;-69
2022/12/08 07:54:48;;;;;;;18.33;10.67;;;;;;;4.02;56.13;96867.44;5018132;28;20268;-70
2022/12/08 07:57:13;;;;;;;15.50;9.70;;;;;;;4.63;54.75;96863.53;5025380;28;20227;-70
2022/12/08 07:59:39;;;;;;;19.57;11.27;;;;;;;5.02;53.13;96861.25;5022545;28;20204;-70
2022/12/08 08:02:05;;;;;;;20.17;10.00;;;;;;;5.63;52.15;96857.09;5020999;28;20666;-71
2022/12/08 08:04:30;;;;;;;14.50;9.20;;;;;;;6.24;50.89;96857.19;5018954;28;20191;-71
2022/12/08 08:06:55;;;;;;;15.37;9.40;;;;;;;6.96;51.09;96854.38;5023213;28;20198;-70
2022/12/08 08:09:21;;;;;;;18.40;10.10;;;;;;;7.69;50.98;96845.97;5028990;28;20352;-70
2022/12/08 08:11:47;;;;;;;18.70;9.80;;;;;;;8.30;48.76;96852.44;5030457;28;20287;-72
2022/12/08 08:14:12;;;;;;;16.57;10.67;;;;;;;8.76;46.05;96846.38;5030193;28;20243;-71
2022/12/08 08:16:40;;;;;;;23.83;9.77;;;;;;;8.69;45.03;96848.78;5027349;28;20187;-71
2022/12/08 08:19:06;;;;;;;15.57;10.07;;;;;;;8.88;43.80;96844.38;5018567;28;20177;-70
2022/12/08 08:21:31;;;;;;;21.50;12.17;;;;;;;8.89;43.20;96852.06;5032569;28;20845;-71
2022/12/08 08:23:57;;;;;;;25.60;12.87;;;;;;;8.65;44.54;96842.22;5027862;28;20639;-71
2022/12/08 08:26:23;;;;;;;18.10;11.30;;;;;;;8.83;45.75;96838.75;5030718;28;20183;-71
2022/12/08 08:28:48;;;;;;;14.17;8.90;;;;;;;9.53;44.36;96836.16;5028606;28;20500;-71
2022/12/08 08:31:14;;;;;;;15.20;8.97;;;;;;;9.92;42.72;96841.91;5031132;28;20287;-72
2022/12/08 08:33:39;;;;;;;20.87;9.30;;;;;;;10.21;41.40;96838.91;5026672;28;20283;-71
2022/12/08 08:36:07;;;;;;;15.33;8.93;;;;;;;10.40;41.45;96843.09;5024600;28;20280;-73
2022/12/08 08:38:32;;;;;;;17.70;9.70;;;;;;;10.96;41.86;96833.84;5028540;28;20190;-72
2022/12/08 08:40:57;;;;;;;20.93;9.60;;;;;;;11.43;40.95;96842.81;5029315;28;21039;-70
2022/12/08 08:43:29;;;;;;;15.47;7.80;;;;;;;11.63;40.58;96843.28;5031644;28;20320;-70
2022/12/08 08:45:56;;;;;;;12.13;7.67;;;;;;;10.93;40.32;96836.81;5036038;28;20187;-71
2022/12/08 08:48:22;;;;;;;12.63;9.17;;;;;;;10.15;41.75;96842.19;5032464;28;20426;-71
2022/12/08 08:50:47;;;;;;;15.97;7.50;;;;;;;9.46;42.80;96829.91;5031409;28;20445;-70
2022/12/08 08:53:13;;;;;;;12.60;7.90;;;;;;;9.49;42.36;96841.88;5032806;28;20206;-71
2022/12/08 08:55:39;;;;;;;11.87;6.63;;;;;;;9.42;43.50;96840.84;5032714;28;20306;-72
2022/12/08 08:58:04;;;;;;;11.00;7.90;;;;;;;9.48;43.35;96837.59;5033463;28;20184;-71
2022/12/08 09:00:29;;;;;;;11.40;7.20;;;;;;;9.64;42.43;96832.47;5032832;28;20207;-70
2022/12/08 09:02:55;;;;;;;16.53;7.47;;;;;;;9.99;42.20;96833.28;5032813;28;20184;-71
2022/12/08 09:05:20;;;;;;;8.43;6.60;;;;;;;10.07;41.69;96831.69;5035851;28;20182;-70
2022/12/08 09:07:46;;;;;;;9.60;6.00;;;;;;;10.19;41.87;96833.03;5021208;28;20239;-71
2022/12/08 09:10:11;;;;;;;9.30;6.20;;;;;;;10.29;41.60;96815.38;5037823;28;20196;-70
2022/12/08 09:12:37;;;;;;;10.63;8.00;;;;;;;10.47;41.48;96824.13;5031013;28;20184;-71
2022/12/08 09:15:03;;;;;;;9.60;7.13;;;;;;;10.48;41.21;96818.72;5030833;28;20187;-71
2022/12/08 09:17:28;;;;;;;13.77;6.90;;;;;;;10.39;40.94;96815.28;5003857;28;20215;-73
2022/12/08 09:19:53;;;;;;;9.20;6.87;;;;;;;10.55;40.97;96811.88;5025677;28;20199;-70
2022/12/08 09:22:19;;;;;;;9.90;6.67;;;;;;;10.72;40.35;96806.63;5025152;28;20545;-71
2022/12/08 09:24:44;;;;;;;12.13;6.30;;;;;;;10.78;40.76;96808.59;5023410;28;20190;-70
2022/12/08 09:27:10;;;;;;;13.60;6.27;;;;;;;10.83;40.30;96811.56;5025093;28;20721;-69
2022/12/08 09:29:35;;;;;;;9.00;6.20;;;;;;;10.82;40.26;96815.19;5028525;28;20179;-70
2022/12/08 09:32:01;;;;;;;10.07;6.83;;;;;;;11.04;39.96;96812.88;5025679;28;20219;-69
2022/12/08 09:34:26;;;;;;;13.47;8.30;;;;;;;11.06;40.07;96818.78;5024018;28;20187;-69
2022/12/08 09:36:51;;;;;;;10.87;7.07;;;;;;;11.50;39.32;96815.75;5024536;28;20553;-70
2022/12/08 09:39:17;;;;;;;9.80;7.20;;;;;;;11.87;38.75;96807.44;5025022;28;20346;-71
2022/12/08 09:41:50;;;;;;;8.83;6.97;;;;;;;11.87;38.11;96807.44;5029047;28;20318;-69
2022/12/08 09:44:25;;;;;;;8.70;6.60;;;;;;;12.19;37.57;96811.75;5030964;28;20878;-71
2022/12/08 09:46:51;;;;;;;9.13;6.10;;;;;;;12.28;38.00;96804.66;5027739;28;20418;-70
2022/12/08 09:49:20;;;;;;;10.93;7.17;;;;;;;12.64;36.83;96798.84;5030073;28;20442;-70
2022/12/08 09:51:45;;;;;;;7.93;6.57;;;;;;;12.82;36.54;96789.84;5030038;28;20536;-71
2022/12/08 09:54:19;;;;;;;8.30;6.70;;;;;;;13.01;35.83;96794.59;5013572;28;20454;-70
2022/12/08 09:56:44;;;;;;;9.40;6.33;;;;;;;12.96;36.34;96786.44;5029682;28;20210;-72
2022/12/08 09:59:22;;;;;;;12.03;6.67;;;;;;;12.85;35.61;96795.56;5029969;28;20509;-70
2022/12/08 10:01:48;;;;;;;9.13;6.70;;;;;;;13.03;35.38;96797.88;5030138;28;20529;-70
2022/12/08 10:04:33;;;;;;;9.33;5.87;;;;;;;12.64;35.82;96787.53;5012871;28;20454;-71
2022/12/08 10:07:04;;;;;;;10.23;6.63;;;;;;;12.96;35.84;96786.44;5030543;28;20418;-73
2022/12/08 10:10:12;;;;;;;6.97;5.37;;;;;;;12.93;35.33;96789.41;5024296;28;20438;-71
2022/12/08 10:12:56;;;;;;;7.77;5.47;;;;;;;12.92;35.36;96781.72;5023070;28;20666;-70
2022/12/08 10:15:40;;;;;;;6.70;5.40;;;;;;;12.77;35.45;96784.28;5029840;28;20449;-72
2022/12/08 10:18:13;;;;;;;8.93;5.70;;;;;;;12.93;35.61;96765.75;5026044;28;20426;-70
2022/12/08 10:20:43;;;;;;;8.87;5.70;;;;;;;12.62;35.57;96769.28;5030779;28;20462;-71
2022/12/08 10:23:11;;;;;;;16.33;6.13;;;;;;;12.62;35.72;96765.84;5030476;28;20766;-72
2022/12/08 10:25:43;;;;;;;9.63;5.07;;;;;;;12.93;35.88;96765.75;5028329;28;20513;-72
2022/12/08 10:28:09;;;;;;;11.87;6.07;;;;;;;13.18;35.10;96768.97;5026666;28;20426;-70
2022/12/08 10:30:34;;;;;;;9.13;5.80;;;;;;;13.31;34.60;96760.47;5029233;28;20446;-70
2022/12/08 10:33:00;;;;;;;5.47;4.87;;;;;;;13.25;35.26;96766.44;5029717;28;21072;-70
2022/12/08 10:35:41;;;;;;;10.33;5.60;;;;;;;13.27;35.38;96761.81;5030548;28;20267;-72
2022/12/08 10:38:16;;;;;;;5.60;4.60;;;;;;;13.20;34.78;96761.72;5029937;28;20679;-71
2022/12/08 10:40:42;;;;;;;5.97;5.10;;;;;;;13.52;34.35;96759.78;5031665;28;20469;-70
2022/12/08 10:43:13;;;;;;;6.13;4.70;;;;;;;13.80;34.46;96758.28;5030615;28;20435;-71
2022/12/08 10:45:43;;;;;;;6.90;4.40;;;;;;;13.28;34.17;96757.38;5015387;28;20447;-70
2022/12/08 10:48:13;;;;;;;5.90;4.67;;;;;;;13.24;34.43;96748.19;5030337;28;20833;-70
2022/12/08 10:50:45;;;;;;;5.50;4.90;;;;;;;13.49;34.57;96754.03;5023916;28;20447;-70
2022/12/08 10:53:25;;;;;;;5.20;4.67;;;;;;;13.19;34.29;96739.03;5031029;28;20461;-72
2022/12/08 10:56:01;;;;;;;5.67;4.93;;;;;;;13.50;34.53;96750.41;5027625;28;20433;-71
2022/12/08 10:58:39;;;;;;;5.60;4.50;;;;;;;13.31;33.41;96736.78;5033739;28;20800;-71
2022/12/08 11:01:11;;;;;;;5.10;4.60;;;;;;;13.51;34.10;96737.09;5032829;28;20480;-71
2022/12/08 11:03:44;;;;;;;5.30;4.37;;;;;;;13.66;33.85;96729.16;5034230;28;20418;-70
2022/12/08 11:06:39;;;;;;;8.80;5.23;;;;;;;14.14;33.27;96725.25;5034101;28;21067;-70
2022/12/08 11:09:06;;;;;;;12.40;5.33;;;;;;;14.15;32.93;96721.59;5013040;28;20437;-71
2022/12/08 11:11:54;;;;;;;7.07;5.33;;;;;;;14.31;33.09;96717.09;5021098;28;20447;-72
2022/12/08 11:14:26;;;;;;;6.43;4.80;;;;;;;14.24;33.54;96704.66;5015552;28;20419;-71
2022/12/08 11:16:54;;;;;;;6.00;5.13;;;;;;;14.40;32.48;96702.78;5023047;28;20521;-71
2022/12/08 11:19:21;;;;;;;4.80;4.30;;;;;;;14.25;32.29;96701.03;5030395;28;20462;-72
2022/12/08 11:21:46;;;;;;;7.00;4.17;;;;;;;13.99;32.83;96698.94;5032900;28;20531;-71
2022/12/08 11:24:24;;;;;;;5.00;4.23;;;;;;;14.24;32.65;96688.84;5016208;28;20438;-71
2022/12/08 11:27:01;;;;;;;6.03;5.13;;;;;;;14.19;33.04;96687.78;5034285;28;20218;-71
2022/12/08 11:29:27;;;;;;;5.53;4.40;;;;;;;14.47;32.16;96682.59;5033878;28;20505;-71
2022/12/08 11:31:58;;;;;;;5.60;4.77;;;;;;;14.65;32.46;96679.50;5015760;28;20616;-71
2022/12/08 11:34:34;;;;;;;6.67;4.63;;;;;;;14.57;32.22;96667.25;5033618;28;20441;-71
2022/12/08 11:37:02;;;;;;;5.93;4.60;;;;;;;14.63;32.26;96664.84;5033730;28;20430;-68
2022/12/08 11:39:30;;;;;;;6.23;4.83;;;;;;;14.17;32.68;96672.16;5042024;28;20998;-70
2022/12/08 11:41:57;;;;;;;6.77;5.00;;;;;;;14.57;32.66;96671.69;5036727;28;20450;-71